Sarajevo, Bosnia and Herzegovina
Current Conditions -  °F | °C
As of 6:00 AM on Monday 20 Oct 2014 (Local Time) from LQSA Reporting Station
Moderate Fog Moderate Fog  
Wind Chill:   Ceiling: 100
Heat Index:   Visibility: 0.5mi
Dew Point:   Wind: 1mph
Humidity: 93%   Direction: NA
Pressure: 30.27"   Gusts: NA
Location:  43.85°N, 18.38°E
Report Text: LQSA 200400Z VRB01KT 0800 R12/0400N FG BKN001 04/03 Q1025 TEMPO 0350 OVC001
Loading
Personal Weather Stations






























Interactive Weather Map New forecast layout! Learn more

10-Day Weather Forecast

Advertisements
Track Severe Weather on mobile